sensor_id;sensor_type;location;lat;lon;timestamp;P1;durP1;ratioP1;P2;durP2;ratioP2
26588;SDS011;14235;48.532;8.722;2022-12-18T00:00:45;23.30;;;14.17;;
26588;SDS011;14235;48.532;8.722;2022-12-18T00:03:14;22.70;;;13.27;;
26588;SDS011;14235;48.532;8.722;2022-12-18T00:05:50;19.97;;;12.80;;
26588;SDS011;14235;48.532;8.722;2022-12-18T00:08:17;23.10;;;13.70;;
26588;SDS011;14235;48.532;8.722;2022-12-18T00:10:43;20.43;;;13.10;;
26588;SDS011;14235;48.532;8.722;2022-12-18T00:13:09;22.57;;;12.97;;
26588;SDS011;14235;48.532;8.722;2022-12-18T00:15:36;21.93;;;13.50;;
26588;SDS011;14235;48.532;8.722;2022-12-18T00:18:02;26.07;;;13.80;;
26588;SDS011;14235;48.532;8.722;2022-12-18T00:20:28;22.13;;;12.70;;
26588;SDS011;14235;48.532;8.722;2022-12-18T00:22:54;23.10;;;13.63;;
26588;SDS011;14235;48.532;8.722;2022-12-18T00:25:20;21.17;;;12.80;;
26588;SDS011;14235;48.532;8.722;2022-12-18T00:27:47;23.30;;;12.77;;
26588;SDS011;14235;48.532;8.722;2022-12-18T00:30:13;26.10;;;13.43;;
26588;SDS011;14235;48.532;8.722;2022-12-18T00:32:39;23.60;;;13.03;;
26588;SDS011;14235;48.532;8.722;2022-12-18T00:35:05;25.23;;;13.53;;
26588;SDS011;14235;48.532;8.722;2022-12-18T00:37:33;22.57;;;13.30;;
26588;SDS011;14235;48.532;8.722;2022-12-18T00:39:59;22.73;;;13.40;;
26588;SDS011;14235;48.532;8.722;2022-12-18T00:42:25;26.10;;;13.70;;
26588;SDS011;14235;48.532;8.722;2022-12-18T00:45:10;24.23;;;13.43;;
26588;SDS011;14235;48.532;8.722;2022-12-18T00:47:36;20.33;;;12.90;;
26588;SDS011;14235;48.532;8.722;2022-12-18T00:50:02;22.27;;;13.10;;
26588;SDS011;14235;48.532;8.722;2022-12-18T00:52:28;20.63;;;13.07;;
26588;SDS011;14235;48.532;8.722;2022-12-18T00:54:54;22.00;;;12.80;;
26588;SDS011;14235;48.532;8.722;2022-12-18T00:57:20;21.70;;;12.43;;
26588;SDS011;14235;48.532;8.722;2022-12-18T00:59:46;22.20;;;12.67;;
26588;SDS011;14235;48.532;8.722;2022-12-18T01:02:12;22.63;;;13.27;;
26588;SDS011;14235;48.532;8.722;2022-12-18T01:04:38;23.23;;;13.10;;
26588;SDS011;14235;48.532;8.722;2022-12-18T01:07:04;21.00;;;12.87;;
26588;SDS011;14235;48.532;8.722;2022-12-18T01:09:29;22.70;;;12.97;;
26588;SDS011;14235;48.532;8.722;2022-12-18T01:11:55;24.23;;;13.37;;
26588;SDS011;14235;48.532;8.722;2022-12-18T01:14:21;23.27;;;12.43;;
26588;SDS011;14235;48.532;8.722;2022-12-18T01:16:47;20.50;;;13.03;;
26588;SDS011;14235;48.532;8.722;2022-12-18T01:19:13;21.17;;;11.87;;
26588;SDS011;14235;48.532;8.722;2022-12-18T01:21:39;22.00;;;12.97;;
26588;SDS011;14235;48.532;8.722;2022-12-18T01:24:05;24.27;;;12.87;;
26588;SDS011;14235;48.532;8.722;2022-12-18T01:26:32;20.27;;;12.67;;
26588;SDS011;14235;48.532;8.722;2022-12-18T01:28:58;20.17;;;12.30;;
26588;SDS011;14235;48.532;8.722;2022-12-18T01:31:28;24.13;;;11.93;;
26588;SDS011;14235;48.532;8.722;2022-12-18T01:33:54;20.17;;;11.77;;
26588;SDS011;14235;48.532;8.722;2022-12-18T01:38:46;22.80;;;12.43;;
26588;SDS011;14235;48.532;8.722;2022-12-18T01:41:13;20.80;;;12.47;;
26588;SDS011;14235;48.532;8.722;2022-12-18T01:43:40;24.03;;;12.83;;
26588;SDS011;14235;48.532;8.722;2022-12-18T01:46:06;21.90;;;12.00;;
26588;SDS011;14235;48.532;8.722;2022-12-18T01:48:32;20.23;;;12.60;;
26588;SDS011;14235;48.532;8.722;2022-12-18T01:50:58;20.37;;;12.10;;
26588;SDS011;14235;48.532;8.722;2022-12-18T01:53:25;21.00;;;12.27;;
26588;SDS011;14235;48.532;8.722;2022-12-18T01:55:52;19.37;;;12.17;;
26588;SDS011;14235;48.532;8.722;2022-12-18T01:58:19;19.07;;;11.80;;
26588;SDS011;14235;48.532;8.722;2022-12-18T02:00:45;18.60;;;10.33;;
26588;SDS011;14235;48.532;8.722;2022-12-18T02:03:12;17.57;;;11.10;;
26588;SDS011;14235;48.532;8.722;2022-12-18T02:05:45;20.80;;;11.67;;
26588;SDS011;14235;48.532;8.722;2022-12-18T02:08:19;20.90;;;12.10;;
26588;SDS011;14235;48.532;8.722;2022-12-18T02:13:40;26.33;;;13.43;;
26588;SDS011;14235;48.532;8.722;2022-12-18T02:16:24;21.33;;;12.40;;
26588;SDS011;14235;48.532;8.722;2022-12-18T02:19:00;19.30;;;11.77;;
26588;SDS011;14235;48.532;8.722;2022-12-18T02:21:44;19.83;;;12.27;;
26588;SDS011;14235;48.532;8.722;2022-12-18T02:26:44;17.57;;;11.37;;
26588;SDS011;14235;48.532;8.722;2022-12-18T02:29:16;18.33;;;11.00;;
26588;SDS011;14235;48.532;8.722;2022-12-18T02:31:45;16.50;;;10.13;;
26588;SDS011;14235;48.532;8.722;2022-12-18T02:34:12;18.00;;;10.30;;
26588;SDS011;14235;48.532;8.722;2022-12-18T02:36:40;18.73;;;10.63;;
26588;SDS011;14235;48.532;8.722;2022-12-18T02:39:07;19.10;;;10.80;;
26588;SDS011;14235;48.532;8.722;2022-12-18T02:41:35;17.00;;;11.10;;
26588;SDS011;14235;48.532;8.722;2022-12-18T02:44:01;17.77;;;10.23;;
26588;SDS011;14235;48.532;8.722;2022-12-18T02:46:36;17.60;;;10.07;;
26588;SDS011;14235;48.532;8.722;2022-12-18T02:49:09;18.63;;;10.47;;
26588;SDS011;14235;48.532;8.722;2022-12-18T02:51:44;18.73;;;11.30;;
26588;SDS011;14235;48.532;8.722;2022-12-18T02:54:20;18.40;;;11.27;;
26588;SDS011;14235;48.532;8.722;2022-12-18T02:56:51;20.00;;;10.93;;
26588;SDS011;14235;48.532;8.722;2022-12-18T02:59:19;16.23;;;10.40;;
26588;SDS011;14235;48.532;8.722;2022-12-18T03:01:51;15.43;;;10.43;;
26588;SDS011;14235;48.532;8.722;2022-12-18T03:04:20;17.90;;;10.70;;
26588;SDS011;14235;48.532;8.722;2022-12-18T03:06:50;17.43;;;11.03;;
26588;SDS011;14235;48.532;8.722;2022-12-18T03:09:28;17.67;;;10.07;;
26588;SDS011;14235;48.532;8.722;2022-12-18T03:11:56;18.10;;;10.20;;
26588;SDS011;14235;48.532;8.722;2022-12-18T03:14:42;19.50;;;10.43;;
26588;SDS011;14235;48.532;8.722;2022-12-18T03:17:10;16.03;;;10.37;;
26588;SDS011;14235;48.532;8.722;2022-12-18T03:19:38;16.93;;;10.57;;
26588;SDS011;14235;48.532;8.722;2022-12-18T03:22:05;18.67;;;10.40;;
26588;SDS011;14235;48.532;8.722;2022-12-18T03:24:33;16.13;;;10.13;;
26588;SDS011;14235;48.532;8.722;2022-12-18T03:27:02;15.93;;;9.77;;
26588;SDS011;14235;48.532;8.722;2022-12-18T03:29:33;18.47;;;10.20;;
26588;SDS011;14235;48.532;8.722;2022-12-18T03:32:02;19.10;;;10.90;;
26588;SDS011;14235;48.532;8.722;2022-12-18T03:34:30;17.57;;;10.07;;
26588;SDS011;14235;48.532;8.722;2022-12-18T03:36:58;18.73;;;10.83;;
26588;SDS011;14235;48.532;8.722;2022-12-18T03:39:24;17.80;;;10.50;;
26588;SDS011;14235;48.532;8.722;2022-12-18T03:41:55;17.77;;;10.67;;
26588;SDS011;14235;48.532;8.722;2022-12-18T03:53:05;19.57;;;10.30;;
26588;SDS011;14235;48.532;8.722;2022-12-18T03:55:34;18.63;;;10.80;;
26588;SDS011;14235;48.532;8.722;2022-12-18T03:58:01;18.77;;;10.50;;
26588;SDS011;14235;48.532;8.722;2022-12-18T04:00:28;19.13;;;11.13;;
26588;SDS011;14235;48.532;8.722;2022-12-18T04:02:55;19.20;;;10.37;;
26588;SDS011;14235;48.532;8.722;2022-12-18T04:05:22;16.80;;;10.43;;
26588;SDS011;14235;48.532;8.722;2022-12-18T04:07:50;18.63;;;9.90;;
26588;SDS011;14235;48.532;8.722;2022-12-18T04:10:17;17.87;;;10.70;;
26588;SDS011;14235;48.532;8.722;2022-12-18T04:12:43;17.23;;;9.80;;
26588;SDS011;14235;48.532;8.722;2022-12-18T04:15:10;18.93;;;10.93;;
26588;SDS011;14235;48.532;8.722;2022-12-18T04:17:36;18.80;;;10.60;;
26588;SDS011;14235;48.532;8.722;2022-12-18T04:20:02;16.93;;;10.33;;
26588;SDS011;14235;48.532;8.722;2022-12-18T04:22:28;15.80;;;10.40;;
26588;SDS011;14235;48.532;8.722;2022-12-18T04:24:54;16.37;;;10.07;;
26588;SDS011;14235;48.532;8.722;2022-12-18T04:27:20;18.23;;;10.77;;
26588;SDS011;14235;48.532;8.722;2022-12-18T04:29:46;18.97;;;10.03;;
26588;SDS011;14235;48.532;8.722;2022-12-18T04:32:12;17.97;;;10.50;;
26588;SDS011;14235;48.532;8.722;2022-12-18T04:34:38;20.43;;;10.70;;
26588;SDS011;14235;48.532;8.722;2022-12-18T04:37:04;19.30;;;11.03;;
26588;SDS011;14235;48.532;8.722;2022-12-18T04:39:30;17.17;;;9.67;;
26588;SDS011;14235;48.532;8.722;2022-12-18T04:41:59;17.37;;;10.30;;
26588;SDS011;14235;48.532;8.722;2022-12-18T04:44:25;15.70;;;9.67;;
26588;SDS011;14235;48.532;8.722;2022-12-18T04:46:51;16.00;;;9.93;;
26588;SDS011;14235;48.532;8.722;2022-12-18T04:49:17;17.83;;;11.07;;
26588;SDS011;14235;48.532;8.722;2022-12-18T04:51:43;18.97;;;11.57;;
26588;SDS011;14235;48.532;8.722;2022-12-18T04:54:09;19.97;;;11.90;;
26588;SDS011;14235;48.532;8.722;2022-12-18T04:56:35;19.70;;;12.47;;
26588;SDS011;14235;48.532;8.722;2022-12-18T04:59:01;17.47;;;10.17;;
26588;SDS011;14235;48.532;8.722;2022-12-18T05:01:27;20.73;;;10.97;;
26588;SDS011;14235;48.532;8.722;2022-12-18T05:03:53;18.33;;;10.87;;
26588;SDS011;14235;48.532;8.722;2022-12-18T05:06:19;18.77;;;10.97;;
26588;SDS011;14235;48.532;8.722;2022-12-18T05:08:45;19.83;;;11.30;;
26588;SDS011;14235;48.532;8.722;2022-12-18T05:11:12;17.07;;;10.50;;
26588;SDS011;14235;48.532;8.722;2022-12-18T05:13:40;19.37;;;10.40;;
26588;SDS011;14235;48.532;8.722;2022-12-18T05:16:06;19.47;;;11.50;;
26588;SDS011;14235;48.532;8.722;2022-12-18T05:18:33;19.40;;;10.90;;
26588;SDS011;14235;48.532;8.722;2022-12-18T05:20:59;19.57;;;11.03;;
26588;SDS011;14235;48.532;8.722;2022-12-18T05:23:25;15.57;;;10.23;;
26588;SDS011;14235;48.532;8.722;2022-12-18T05:25:55;19.23;;;11.43;;
26588;SDS011;14235;48.532;8.722;2022-12-18T05:28:22;18.20;;;11.43;;
26588;SDS011;14235;48.532;8.722;2022-12-18T05:30:49;17.60;;;10.37;;
26588;SDS011;14235;48.532;8.722;2022-12-18T05:33:15;16.73;;;11.03;;
26588;SDS011;14235;48.532;8.722;2022-12-18T05:35:42;21.30;;;12.20;;
26588;SDS011;14235;48.532;8.722;2022-12-18T05:38:07;21.20;;;12.13;;
26588;SDS011;14235;48.532;8.722;2022-12-18T05:40:33;20.20;;;12.53;;
26588;SDS011;14235;48.532;8.722;2022-12-18T05:42:59;24.73;;;13.47;;
26588;SDS011;14235;48.532;8.722;2022-12-18T05:45:24;22.13;;;12.63;;
26588;SDS011;14235;48.532;8.722;2022-12-18T05:47:50;21.83;;;12.43;;
26588;SDS011;14235;48.532;8.722;2022-12-18T05:50:15;22.90;;;13.43;;
26588;SDS011;14235;48.532;8.722;2022-12-18T05:52:41;20.43;;;11.73;;
26588;SDS011;14235;48.532;8.722;2022-12-18T05:55:06;22.57;;;12.07;;
26588;SDS011;14235;48.532;8.722;2022-12-18T05:57:32;18.53;;;11.33;;
26588;SDS011;14235;48.532;8.722;2022-12-18T05:59:58;18.03;;;11.17;;
26588;SDS011;14235;48.532;8.722;2022-12-18T06:02:23;18.60;;;11.13;;
26588;SDS011;14235;48.532;8.722;2022-12-18T06:04:49;19.10;;;11.40;;
26588;SDS011;14235;48.532;8.722;2022-12-18T06:07:15;21.13;;;11.63;;
26588;SDS011;14235;48.532;8.722;2022-12-18T06:09:40;19.23;;;11.50;;
26588;SDS011;14235;48.532;8.722;2022-12-18T06:12:06;20.13;;;12.00;;
26588;SDS011;14235;48.532;8.722;2022-12-18T06:14:31;19.40;;;11.63;;
26588;SDS011;14235;48.532;8.722;2022-12-18T06:16:57;18.93;;;11.73;;
26588;SDS011;14235;48.532;8.722;2022-12-18T06:19:22;24.80;;;11.77;;
26588;SDS011;14235;48.532;8.722;2022-12-18T06:21:48;21.63;;;12.37;;
26588;SDS011;14235;48.532;8.722;2022-12-18T06:24:14;21.67;;;12.53;;
26588;SDS011;14235;48.532;8.722;2022-12-18T06:26:40;20.87;;;12.07;;
26588;SDS011;14235;48.532;8.722;2022-12-18T06:29:06;25.13;;;12.40;;
26588;SDS011;14235;48.532;8.722;2022-12-18T06:31:31;18.73;;;11.13;;
26588;SDS011;14235;48.532;8.722;2022-12-18T06:33:57;21.73;;;12.53;;
26588;SDS011;14235;48.532;8.722;2022-12-18T06:36:23;21.13;;;12.83;;
26588;SDS011;14235;48.532;8.722;2022-12-18T06:38:48;23.20;;;11.63;;
26588;SDS011;14235;48.532;8.722;2022-12-18T06:41:18;22.50;;;13.27;;
26588;SDS011;14235;48.532;8.722;2022-12-18T06:43:45;19.87;;;13.20;;
26588;SDS011;14235;48.532;8.722;2022-12-18T06:46:11;22.40;;;11.93;;
26588;SDS011;14235;48.532;8.722;2022-12-18T06:48:36;19.13;;;12.67;;
26588;SDS011;14235;48.532;8.722;2022-12-18T06:51:02;19.33;;;11.80;;
26588;SDS011;14235;48.532;8.722;2022-12-18T06:53:28;17.80;;;11.20;;
26588;SDS011;14235;48.532;8.722;2022-12-18T06:56:04;18.43;;;10.77;;
26588;SDS011;14235;48.532;8.722;2022-12-18T06:58:31;19.17;;;11.20;;
26588;SDS011;14235;48.532;8.722;2022-12-18T07:01:01;18.67;;;11.83;;
26588;SDS011;14235;48.532;8.722;2022-12-18T07:03:28;17.67;;;11.53;;
26588;SDS011;14235;48.532;8.722;2022-12-18T07:05:54;20.23;;;11.43;;
26588;SDS011;14235;48.532;8.722;2022-12-18T07:08:20;22.57;;;12.00;;
26588;SDS011;14235;48.532;8.722;2022-12-18T07:10:46;19.13;;;11.23;;
26588;SDS011;14235;48.532;8.722;2022-12-18T07:13:13;20.67;;;11.70;;
26588;SDS011;14235;48.532;8.722;2022-12-18T07:15:40;20.80;;;12.07;;
26588;SDS011;14235;48.532;8.722;2022-12-18T07:18:05;19.77;;;11.47;;
26588;SDS011;14235;48.532;8.722;2022-12-18T07:20:31;19.30;;;11.37;;
26588;SDS011;14235;48.532;8.722;2022-12-18T07:22:56;19.70;;;11.10;;
26588;SDS011;14235;48.532;8.722;2022-12-18T07:25:22;18.47;;;11.50;;
26588;SDS011;14235;48.532;8.722;2022-12-18T07:27:48;19.60;;;11.50;;
26588;SDS011;14235;48.532;8.722;2022-12-18T07:30:13;19.00;;;11.53;;
26588;SDS011;14235;48.532;8.722;2022-12-18T07:32:39;22.57;;;13.37;;
26588;SDS011;14235;48.532;8.722;2022-12-18T07:35:05;23.47;;;13.10;;
26588;SDS011;14235;48.532;8.722;2022-12-18T07:37:30;20.07;;;11.33;;
26588;SDS011;14235;48.532;8.722;2022-12-18T07:39:56;19.37;;;11.57;;
26588;SDS011;14235;48.532;8.722;2022-12-18T07:42:21;20.17;;;12.57;;
26588;SDS011;14235;48.532;8.722;2022-12-18T07:44:56;26.00;;;16.27;;
26588;SDS011;14235;48.532;8.722;2022-12-18T07:47:22;31.43;;;17.80;;
26588;SDS011;14235;48.532;8.722;2022-12-18T07:49:48;33.90;;;19.57;;
26588;SDS011;14235;48.532;8.722;2022-12-18T07:52:14;49.37;;;25.93;;
26588;SDS011;14235;48.532;8.722;2022-12-18T07:54:39;43.60;;;23.37;;
26588;SDS011;14235;48.532;8.722;2022-12-18T07:57:05;32.97;;;16.77;;
26588;SDS011;14235;48.532;8.722;2022-12-18T07:59:31;28.57;;;15.40;;
26588;SDS011;14235;48.532;8.722;2022-12-18T08:01:57;35.80;;;16.70;;
26588;SDS011;14235;48.532;8.722;2022-12-18T08:04:23;50.17;;;20.33;;
26588;SDS011;14235;48.532;8.722;2022-12-18T08:06:49;31.63;;;16.33;;
26588;SDS011;14235;48.532;8.722;2022-12-18T08:09:15;27.30;;;14.20;;
26588;SDS011;14235;48.532;8.722;2022-12-18T08:11:41;30.30;;;15.03;;
26588;SDS011;14235;48.532;8.722;2022-12-18T08:14:06;41.10;;;18.30;;
26588;SDS011;14235;48.532;8.722;2022-12-18T08:16:32;60.40;;;20.87;;
26588;SDS011;14235;48.532;8.722;2022-12-18T08:18:58;57.00;;;23.83;;
26588;SDS011;14235;48.532;8.722;2022-12-18T08:21:24;69.03;;;24.93;;
26588;SDS011;14235;48.532;8.722;2022-12-18T08:23:52;67.03;;;28.57;;
26588;SDS011;14235;48.532;8.722;2022-12-18T08:26:19;79.23;;;31.30;;
26588;SDS011;14235;48.532;8.722;2022-12-18T08:28:45;76.77;;;30.63;;
26588;SDS011;14235;48.532;8.722;2022-12-18T08:31:11;80.07;;;28.93;;
26588;SDS011;14235;48.532;8.722;2022-12-18T08:33:37;74.60;;;29.63;;
26588;SDS011;14235;48.532;8.722;2022-12-18T08:36:04;74.03;;;30.13;;
26588;SDS011;14235;48.532;8.722;2022-12-18T08:38:31;68.43;;;30.10;;
26588;SDS011;14235;48.532;8.722;2022-12-18T08:41:08;58.87;;;30.30;;
26588;SDS011;14235;48.532;8.722;2022-12-18T08:43:35;56.00;;;28.57;;
26588;SDS011;14235;48.532;8.722;2022-12-18T08:46:20;64.43;;;29.50;;
26588;SDS011;14235;48.532;8.722;2022-12-18T08:48:46;57.13;;;26.23;;
26588;SDS011;14235;48.532;8.722;2022-12-18T08:51:12;53.70;;;24.93;;
26588;SDS011;14235;48.532;8.722;2022-12-18T08:53:40;56.77;;;27.73;;
26588;SDS011;14235;48.532;8.722;2022-12-18T08:56:07;51.00;;;26.10;;
26588;SDS011;14235;48.532;8.722;2022-12-18T08:58:32;46.33;;;24.27;;
26588;SDS011;14235;48.532;8.722;2022-12-18T09:01:02;51.70;;;23.03;;
26588;SDS011;14235;48.532;8.722;2022-12-18T09:03:29;34.77;;;18.67;;
26588;SDS011;14235;48.532;8.722;2022-12-18T09:05:54;36.40;;;17.63;;
26588;SDS011;14235;48.532;8.722;2022-12-18T09:08:20;28.40;;;14.90;;
26588;SDS011;14235;48.532;8.722;2022-12-18T09:10:47;26.37;;;15.13;;
26588;SDS011;14235;48.532;8.722;2022-12-18T09:13:14;25.63;;;14.97;;
26588;SDS011;14235;48.532;8.722;2022-12-18T09:15:44;31.60;;;16.20;;
26588;SDS011;14235;48.532;8.722;2022-12-18T09:18:11;30.80;;;16.53;;
26588;SDS011;14235;48.532;8.722;2022-12-18T09:20:38;30.97;;;16.23;;
26588;SDS011;14235;48.532;8.722;2022-12-18T09:23:04;33.83;;;16.53;;
26588;SDS011;14235;48.532;8.722;2022-12-18T09:25:31;29.47;;;16.77;;
26588;SDS011;14235;48.532;8.722;2022-12-18T09:28:10;27.30;;;15.97;;
26588;SDS011;14235;48.532;8.722;2022-12-18T09:30:41;31.77;;;16.87;;
26588;SDS011;14235;48.532;8.722;2022-12-18T09:33:09;27.17;;;15.60;;
26588;SDS011;14235;48.532;8.722;2022-12-18T09:35:37;23.77;;;15.00;;
26588;SDS011;14235;48.532;8.722;2022-12-18T09:38:04;26.90;;;13.67;;
26588;SDS011;14235;48.532;8.722;2022-12-18T09:40:35;22.10;;;12.87;;
26588;SDS011;14235;48.532;8.722;2022-12-18T09:43:05;23.13;;;14.60;;
26588;SDS011;14235;48.532;8.722;2022-12-18T09:45:39;24.90;;;12.60;;
26588;SDS011;14235;48.532;8.722;2022-12-18T09:48:31;22.30;;;12.53;;
26588;SDS011;14235;48.532;8.722;2022-12-18T09:51:02;19.70;;;12.33;;
26588;SDS011;14235;48.532;8.722;2022-12-18T09:53:34;27.67;;;15.13;;
26588;SDS011;14235;48.532;8.722;2022-12-18T09:56:02;23.30;;;14.77;;
26588;SDS011;14235;48.532;8.722;2022-12-18T09:58:35;28.50;;;15.60;;
26588;SDS011;14235;48.532;8.722;2022-12-18T10:01:16;28.80;;;15.33;;
26588;SDS011;14235;48.532;8.722;2022-12-18T10:03:46;25.83;;;15.33;;
26588;SDS011;14235;48.532;8.722;2022-12-18T10:08:43;27.00;;;15.07;;
26588;SDS011;14235;48.532;8.722;2022-12-18T10:11:34;22.57;;;13.37;;
26588;SDS011;14235;48.532;8.722;2022-12-18T10:17:18;26.40;;;14.67;;
26588;SDS011;14235;48.532;8.722;2022-12-18T10:20:03;24.10;;;14.53;;
26588;SDS011;14235;48.532;8.722;2022-12-18T10:28:12;27.20;;;14.73;;
26588;SDS011;14235;48.532;8.722;2022-12-18T10:30:39;27.20;;;15.67;;
26588;SDS011;14235;48.532;8.722;2022-12-18T10:33:09;30.27;;;14.90;;
26588;SDS011;14235;48.532;8.722;2022-12-18T10:35:41;28.90;;;15.60;;
26588;SDS011;14235;48.532;8.722;2022-12-18T10:40:50;33.73;;;17.57;;
26588;SDS011;14235;48.532;8.722;2022-12-18T10:48:26;32.73;;;16.83;;
26588;SDS011;14235;48.532;8.722;2022-12-18T10:50:53;32.60;;;17.93;;
26588;SDS011;14235;48.532;8.722;2022-12-18T10:53:23;38.30;;;19.30;;
26588;SDS011;14235;48.532;8.722;2022-12-18T10:55:52;33.73;;;17.57;;
26588;SDS011;14235;48.532;8.722;2022-12-18T10:58:21;38.17;;;19.90;;
26588;SDS011;14235;48.532;8.722;2022-12-18T11:01:15;36.43;;;18.73;;
26588;SDS011;14235;48.532;8.722;2022-12-18T11:06:18;36.73;;;18.63;;
26588;SDS011;14235;48.532;8.722;2022-12-18T11:08:58;38.87;;;18.77;;
26588;SDS011;14235;48.532;8.722;2022-12-18T11:11:42;43.87;;;20.37;;
26588;SDS011;14235;48.532;8.722;2022-12-18T11:14:43;36.03;;;19.07;;
26588;SDS011;14235;48.532;8.722;2022-12-18T11:17:18;37.53;;;19.97;;
26588;SDS011;14235;48.532;8.722;2022-12-18T11:19:45;40.87;;;19.63;;
26588;SDS011;14235;48.532;8.722;2022-12-18T11:25:36;43.17;;;18.47;;
26588;SDS011;14235;48.532;8.722;2022-12-18T11:27:37;39.57;;;19.17;;
26588;SDS011;14235;48.532;8.722;2022-12-18T11:32:48;40.17;;;20.03;;
26588;SDS011;14235;48.532;8.722;2022-12-18T11:35:28;42.23;;;20.93;;
26588;SDS011;14235;48.532;8.722;2022-12-18T11:38:03;42.63;;;20.70;;
26588;SDS011;14235;48.532;8.722;2022-12-18T11:40:44;42.97;;;20.83;;
26588;SDS011;14235;48.532;8.722;2022-12-18T11:43:22;39.97;;;19.77;;
26588;SDS011;14235;48.532;8.722;2022-12-18T11:45:55;38.60;;;19.07;;
26588;SDS011;14235;48.532;8.722;2022-12-18T11:48:28;37.93;;;19.40;;
26588;SDS011;14235;48.532;8.722;2022-12-18T11:50:58;40.33;;;19.57;;
26588;SDS011;14235;48.532;8.722;2022-12-18T11:53:27;39.87;;;21.00;;
26588;SDS011;14235;48.532;8.722;2022-12-18T11:58:56;43.43;;;21.93;;
26588;SDS011;14235;48.532;8.722;2022-12-18T12:06:47;41.53;;;20.53;;
26588;SDS011;14235;48.532;8.722;2022-12-18T12:09:49;40.07;;;20.70;;
26588;SDS011;14235;48.532;8.722;2022-12-18T12:20:59;40.53;;;19.47;;
26588;SDS011;14235;48.532;8.722;2022-12-18T12:38:00;41.00;;;20.37;;
26588;SDS011;14235;48.532;8.722;2022-12-18T12:40:38;38.67;;;19.47;;
26588;SDS011;14235;48.532;8.722;2022-12-18T12:46:08;40.90;;;20.60;;
26588;SDS011;14235;48.532;8.722;2022-12-18T12:51:26;37.90;;;20.53;;
26588;SDS011;14235;48.532;8.722;2022-12-18T12:53:56;40.93;;;21.17;;
26588;SDS011;14235;48.532;8.722;2022-12-18T12:56:24;38.83;;;21.07;;
26588;SDS011;14235;48.532;8.722;2022-12-18T12:59:45;38.77;;;21.87;;
26588;SDS011;14235;48.532;8.722;2022-12-18T13:02:10;39.87;;;20.50;;
26588;SDS011;14235;48.532;8.722;2022-12-18T13:04:56;41.17;;;21.33;;
26588;SDS011;14235;48.532;8.722;2022-12-18T13:07:38;40.77;;;21.67;;
26588;SDS011;14235;48.532;8.722;2022-12-18T13:10:52;42.53;;;22.03;;
26588;SDS011;14235;48.532;8.722;2022-12-18T13:13:03;40.10;;;21.80;;
26588;SDS011;14235;48.532;8.722;2022-12-18T13:15:38;38.33;;;21.20;;
26588;SDS011;14235;48.532;8.722;2022-12-18T13:20:35;41.63;;;22.30;;
26588;SDS011;14235;48.532;8.722;2022-12-18T13:23:19;37.70;;;21.33;;
26588;SDS011;14235;48.532;8.722;2022-12-18T13:25:54;43.50;;;22.47;;
26588;SDS011;14235;48.532;8.722;2022-12-18T13:30:59;38.23;;;20.90;;
26588;SDS011;14235;48.532;8.722;2022-12-18T13:38:41;44.60;;;22.80;;
26588;SDS011;14235;48.532;8.722;2022-12-18T13:43:43;42.73;;;21.60;;
26588;SDS011;14235;48.532;8.722;2022-12-18T13:49:21;42.40;;;21.97;;
26588;SDS011;14235;48.532;8.722;2022-12-18T13:51:39;40.07;;;22.07;;
26588;SDS011;14235;48.532;8.722;2022-12-18T13:57:00;43.20;;;21.80;;
26588;SDS011;14235;48.532;8.722;2022-12-18T13:59:32;43.10;;;23.33;;
26588;SDS011;14235;48.532;8.722;2022-12-18T14:02:21;43.30;;;23.33;;
26588;SDS011;14235;48.532;8.722;2022-12-18T14:04:49;42.97;;;23.07;;
26588;SDS011;14235;48.532;8.722;2022-12-18T14:07:19;41.70;;;22.63;;
26588;SDS011;14235;48.532;8.722;2022-12-18T14:09:57;40.20;;;22.37;;
26588;SDS011;14235;48.532;8.722;2022-12-18T14:12:30;45.83;;;24.67;;
26588;SDS011;14235;48.532;8.722;2022-12-18T14:18:01;42.93;;;24.13;;
26588;SDS011;14235;48.532;8.722;2022-12-18T14:20:39;44.00;;;23.77;;
26588;SDS011;14235;48.532;8.722;2022-12-18T14:23:28;46.47;;;24.20;;
26588;SDS011;14235;48.532;8.722;2022-12-18T14:25:54;53.10;;;26.10;;
26588;SDS011;14235;48.532;8.722;2022-12-18T14:28:20;49.50;;;25.43;;
26588;SDS011;14235;48.532;8.722;2022-12-18T14:30:47;44.47;;;24.93;;
26588;SDS011;14235;48.532;8.722;2022-12-18T14:33:17;43.40;;;25.47;;
26588;SDS011;14235;48.532;8.722;2022-12-18T14:36:01;44.90;;;24.70;;
26588;SDS011;14235;48.532;8.722;2022-12-18T14:38:33;45.30;;;24.23;;
26588;SDS011;14235;48.532;8.722;2022-12-18T14:43:31;44.20;;;25.03;;
26588;SDS011;14235;48.532;8.722;2022-12-18T14:45:58;49.47;;;25.67;;
26588;SDS011;14235;48.532;8.722;2022-12-18T14:48:37;46.60;;;25.63;;
26588;SDS011;14235;48.532;8.722;2022-12-18T14:54:05;47.10;;;24.73;;
26588;SDS011;14235;48.532;8.722;2022-12-18T14:56:43;45.27;;;24.93;;
26588;SDS011;14235;48.532;8.722;2022-12-18T14:59:20;44.53;;;24.20;;
26588;SDS011;14235;48.532;8.722;2022-12-18T15:04:35;44.60;;;24.90;;
26588;SDS011;14235;48.532;8.722;2022-12-18T15:07:05;42.53;;;24.23;;
26588;SDS011;14235;48.532;8.722;2022-12-18T15:09:36;40.90;;;23.63;;
26588;SDS011;14235;48.532;8.722;2022-12-18T15:12:03;41.77;;;24.40;;
26588;SDS011;14235;48.532;8.722;2022-12-18T15:14:39;45.00;;;24.20;;
26588;SDS011;14235;48.532;8.722;2022-12-18T15:17:16;43.07;;;22.37;;
26588;SDS011;14235;48.532;8.722;2022-12-18T15:19:44;40.70;;;23.37;;
26588;SDS011;14235;48.532;8.722;2022-12-18T15:24:51;42.37;;;23.57;;
26588;SDS011;14235;48.532;8.722;2022-12-18T15:27:21;45.37;;;24.10;;
26588;SDS011;14235;48.532;8.722;2022-12-18T15:32:51;40.83;;;23.57;;
26588;SDS011;14235;48.532;8.722;2022-12-18T15:35:37;44.43;;;24.60;;
26588;SDS011;14235;48.532;8.722;2022-12-18T15:38:02;40.10;;;23.50;;
26588;SDS011;14235;48.532;8.722;2022-12-18T15:40:28;42.40;;;23.17;;
26588;SDS011;14235;48.532;8.722;2022-12-18T15:42:53;42.73;;;23.03;;
26588;SDS011;14235;48.532;8.722;2022-12-18T15:45:38;38.70;;;22.93;;
26588;SDS011;14235;48.532;8.722;2022-12-18T15:48:10;37.90;;;22.13;;
26588;SDS011;14235;48.532;8.722;2022-12-18T15:50:46;38.93;;;23.10;;
26588;SDS011;14235;48.532;8.722;2022-12-18T15:53:11;40.00;;;22.87;;
26588;SDS011;14235;48.532;8.722;2022-12-18T15:55:37;41.93;;;23.43;;
26588;SDS011;14235;48.532;8.722;2022-12-18T15:58:21;45.30;;;23.83;;
26588;SDS011;14235;48.532;8.722;2022-12-18T16:00:47;39.17;;;21.77;;
26588;SDS011;14235;48.532;8.722;2022-12-18T16:03:12;40.03;;;22.90;;
26588;SDS011;14235;48.532;8.722;2022-12-18T16:05:38;36.63;;;21.90;;
26588;SDS011;14235;48.532;8.722;2022-12-18T16:08:04;39.93;;;22.67;;
26588;SDS011;14235;48.532;8.722;2022-12-18T16:10:29;34.53;;;20.93;;
26588;SDS011;14235;48.532;8.722;2022-12-18T16:12:55;37.03;;;22.00;;
26588;SDS011;14235;48.532;8.722;2022-12-18T16:15:20;37.60;;;21.20;;
26588;SDS011;14235;48.532;8.722;2022-12-18T16:17:46;35.97;;;21.57;;
26588;SDS011;14235;48.532;8.722;2022-12-18T16:20:13;38.03;;;21.43;;
26588;SDS011;14235;48.532;8.722;2022-12-18T16:22:43;34.33;;;20.33;;
26588;SDS011;14235;48.532;8.722;2022-12-18T16:25:20;37.40;;;21.83;;
26588;SDS011;14235;48.532;8.722;2022-12-18T16:27:48;41.90;;;23.13;;
26588;SDS011;14235;48.532;8.722;2022-12-18T16:30:15;36.23;;;22.63;;